sensor_id;sensor_type;location;lat;lon;timestamp;P1;durP1;ratioP1;P2;durP2;ratioP2
26530;SDS011;14201;43.188;24.160;2022-09-30T00:01:24;4.85;;;2.80;;
26530;SDS011;14201;43.188;24.160;2022-09-30T00:03:51;6.30;;;3.10;;
26530;SDS011;14201;43.188;24.160;2022-09-30T00:06:18;5.55;;;3.25;;
26530;SDS011;14201;43.188;24.160;2022-09-30T00:08:45;4.20;;;2.90;;
26530;SDS011;14201;43.188;24.160;2022-09-30T00:11:12;4.60;;;3.38;;
26530;SDS011;14201;43.188;24.160;2022-09-30T00:13:43;5.80;;;3.30;;
26530;SDS011;14201;43.188;24.160;2022-09-30T00:16:11;7.82;;;3.00;;
26530;SDS011;14201;43.188;24.160;2022-09-30T00:18:38;7.32;;;3.00;;
26530;SDS011;14201;43.188;24.160;2022-09-30T00:21:05;7.32;;;3.25;;
26530;SDS011;14201;43.188;24.160;2022-09-30T00:23:32;7.95;;;3.53;;
26530;SDS011;14201;43.188;24.160;2022-09-30T00:26:01;8.25;;;3.60;;
26530;SDS011;14201;43.188;24.160;2022-09-30T00:28:29;9.05;;;3.33;;
26530;SDS011;14201;43.188;24.160;2022-09-30T00:30:58;10.70;;;3.60;;
26530;SDS011;14201;43.188;24.160;2022-09-30T00:33:29;5.70;;;3.03;;
26530;SDS011;14201;43.188;24.160;2022-09-30T00:35:55;4.47;;;3.08;;
26530;SDS011;14201;43.188;24.160;2022-09-30T00:38:21;8.27;;;3.67;;
26530;SDS011;14201;43.188;24.160;2022-09-30T00:40:47;4.80;;;3.00;;
26530;SDS011;14201;43.188;24.160;2022-09-30T00:43:59;9.73;;;3.40;;
26530;SDS011;14201;43.188;24.160;2022-09-30T00:46:05;7.10;;;3.85;;
26530;SDS011;14201;43.188;24.160;2022-09-30T00:48:53;7.30;;;3.35;;
26530;SDS011;14201;43.188;24.160;2022-09-30T00:51:34;6.65;;;4.00;;
26530;SDS011;14201;43.188;24.160;2022-09-30T00:54:04;10.50;;;3.45;;
26530;SDS011;14201;43.188;24.160;2022-09-30T00:56:54;10.35;;;3.90;;
26530;SDS011;14201;43.188;24.160;2022-09-30T00:59:23;5.75;;;3.60;;
26530;SDS011;14201;43.188;24.160;2022-09-30T01:01:51;8.77;;;3.30;;
26530;SDS011;14201;43.188;24.160;2022-09-30T01:04:18;7.10;;;3.92;;
26530;SDS011;14201;43.188;24.160;2022-09-30T01:06:46;7.30;;;3.22;;
26530;SDS011;14201;43.188;24.160;2022-09-30T01:09:12;6.93;;;3.25;;
26530;SDS011;14201;43.188;24.160;2022-09-30T01:11:38;9.02;;;3.55;;
26530;SDS011;14201;43.188;24.160;2022-09-30T01:14:06;7.97;;;2.95;;
26530;SDS011;14201;43.188;24.160;2022-09-30T01:22:11;4.60;;;2.90;;
26530;SDS011;14201;43.188;24.160;2022-09-30T01:28:03;4.60;;;3.20;;
26530;SDS011;14201;43.188;24.160;2022-09-30T01:31:12;8.10;;;3.65;;
26530;SDS011;14201;43.188;24.160;2022-09-30T01:36:27;8.25;;;3.03;;
26530;SDS011;14201;43.188;24.160;2022-09-30T01:41:43;5.65;;;2.85;;
26530;SDS011;14201;43.188;24.160;2022-09-30T01:47:10;8.45;;;3.22;;
26530;SDS011;14201;43.188;24.160;2022-09-30T01:54:59;5.63;;;3.05;;
26530;SDS011;14201;43.188;24.160;2022-09-30T01:57:32;5.90;;;3.50;;
26530;SDS011;14201;43.188;24.160;2022-09-30T02:00:20;5.63;;;3.30;;
26530;SDS011;14201;43.188;24.160;2022-09-30T02:02:47;6.15;;;3.78;;
26530;SDS011;14201;43.188;24.160;2022-09-30T02:05:40;5.30;;;4.25;;
26530;SDS011;14201;43.188;24.160;2022-09-30T02:08:16;7.10;;;3.35;;
26530;SDS011;14201;43.188;24.160;2022-09-30T02:10:51;4.93;;;3.28;;
26530;SDS011;14201;43.188;24.160;2022-09-30T02:16:00;4.45;;;3.08;;
26530;SDS011;14201;43.188;24.160;2022-09-30T02:18:49;6.60;;;3.55;;
26530;SDS011;14201;43.188;24.160;2022-09-30T02:21:37;4.15;;;3.40;;
26530;SDS011;14201;43.188;24.160;2022-09-30T02:24:07;3.75;;;2.72;;
26530;SDS011;14201;43.188;24.160;2022-09-30T02:26:37;8.40;;;3.53;;
26530;SDS011;14201;43.188;24.160;2022-09-30T02:34:13;7.00;;;3.90;;
26530;SDS011;14201;43.188;24.160;2022-09-30T02:36:49;10.68;;;3.67;;
26530;SDS011;14201;43.188;24.160;2022-09-30T02:39:36;7.28;;;3.13;;
26530;SDS011;14201;43.188;24.160;2022-09-30T02:42:14;5.13;;;3.53;;
26530;SDS011;14201;43.188;24.160;2022-09-30T02:44:50;5.25;;;3.42;;
26530;SDS011;14201;43.188;24.160;2022-09-30T02:50:14;6.90;;;3.20;;
26530;SDS011;14201;43.188;24.160;2022-09-30T02:58:05;6.15;;;3.65;;
26530;SDS011;14201;43.188;24.160;2022-09-30T03:00:38;6.38;;;3.35;;
26530;SDS011;14201;43.188;24.160;2022-09-30T03:03:09;6.43;;;3.40;;
26530;SDS011;14201;43.188;24.160;2022-09-30T03:05:43;7.13;;;3.08;;
26530;SDS011;14201;43.188;24.160;2022-09-30T03:08:09;8.05;;;3.22;;
26530;SDS011;14201;43.188;24.160;2022-09-30T03:10:35;6.28;;;3.08;;
26530;SDS011;14201;43.188;24.160;2022-09-30T03:16:09;3.85;;;3.03;;
26530;SDS011;14201;43.188;24.160;2022-09-30T03:30:50;10.50;;;3.78;;
26530;SDS011;14201;43.188;24.160;2022-09-30T03:33:24;6.47;;;3.53;;
26530;SDS011;14201;43.188;24.160;2022-09-30T03:35:59;6.55;;;4.10;;
26530;SDS011;14201;43.188;24.160;2022-09-30T03:43:44;7.43;;;3.67;;
26530;SDS011;14201;43.188;24.160;2022-09-30T03:49:02;7.45;;;3.83;;
26530;SDS011;14201;43.188;24.160;2022-09-30T03:51:32;5.53;;;3.80;;
26530;SDS011;14201;43.188;24.160;2022-09-30T03:54:05;7.28;;;3.40;;
26530;SDS011;14201;43.188;24.160;2022-09-30T03:56:34;4.60;;;3.83;;
26530;SDS011;14201;43.188;24.160;2022-09-30T03:59:10;7.68;;;3.65;;
26530;SDS011;14201;43.188;24.160;2022-09-30T04:01:41;6.93;;;3.47;;
26530;SDS011;14201;43.188;24.160;2022-09-30T04:04:07;8.18;;;3.47;;
26530;SDS011;14201;43.188;24.160;2022-09-30T04:06:32;9.25;;;3.42;;
26530;SDS011;14201;43.188;24.160;2022-09-30T04:08:58;8.90;;;3.65;;
26530;SDS011;14201;43.188;24.160;2022-09-30T04:11:24;6.35;;;3.15;;
26530;SDS011;14201;43.188;24.160;2022-09-30T04:13:50;3.58;;;3.20;;
26530;SDS011;14201;43.188;24.160;2022-09-30T04:16:15;6.50;;;3.25;;
26530;SDS011;14201;43.188;24.160;2022-09-30T04:18:41;4.75;;;3.50;;
26530;SDS011;14201;43.188;24.160;2022-09-30T04:21:07;10.77;;;4.30;;
26530;SDS011;14201;43.188;24.160;2022-09-30T04:23:35;7.68;;;3.40;;
26530;SDS011;14201;43.188;24.160;2022-09-30T04:26:02;9.82;;;4.00;;
26530;SDS011;14201;43.188;24.160;2022-09-30T04:28:29;9.30;;;3.90;;
26530;SDS011;14201;43.188;24.160;2022-09-30T04:30:57;11.45;;;3.90;;
26530;SDS011;14201;43.188;24.160;2022-09-30T04:33:24;7.72;;;4.25;;
26530;SDS011;14201;43.188;24.160;2022-09-30T04:35:53;7.15;;;3.83;;
26530;SDS011;14201;43.188;24.160;2022-09-30T04:40:46;7.15;;;4.18;;
26530;SDS011;14201;43.188;24.160;2022-09-30T04:43:13;7.90;;;3.25;;
26530;SDS011;14201;43.188;24.160;2022-09-30T04:45:42;10.32;;;4.20;;
26530;SDS011;14201;43.188;24.160;2022-09-30T04:48:09;12.90;;;3.90;;
26530;SDS011;14201;43.188;24.160;2022-09-30T04:50:35;9.02;;;3.65;;
26530;SDS011;14201;43.188;24.160;2022-09-30T04:53:01;13.23;;;4.22;;
26530;SDS011;14201;43.188;24.160;2022-09-30T04:55:27;16.27;;;4.07;;
26530;SDS011;14201;43.188;24.160;2022-09-30T04:57:53;11.38;;;4.13;;
26530;SDS011;14201;43.188;24.160;2022-09-30T05:00:19;5.28;;;3.60;;
26530;SDS011;14201;43.188;24.160;2022-09-30T05:02:45;9.65;;;3.97;;
26530;SDS011;14201;43.188;24.160;2022-09-30T05:05:11;6.75;;;3.45;;
26530;SDS011;14201;43.188;24.160;2022-09-30T05:07:37;10.20;;;3.78;;
26530;SDS011;14201;43.188;24.160;2022-09-30T05:10:04;8.15;;;3.75;;
26530;SDS011;14201;43.188;24.160;2022-09-30T05:12:30;9.40;;;3.78;;
26530;SDS011;14201;43.188;24.160;2022-09-30T05:14:56;8.25;;;3.47;;
26530;SDS011;14201;43.188;24.160;2022-09-30T05:17:21;4.90;;;3.47;;
26530;SDS011;14201;43.188;24.160;2022-09-30T05:19:47;6.45;;;3.58;;
26530;SDS011;14201;43.188;24.160;2022-09-30T05:22:13;6.72;;;3.90;;
26530;SDS011;14201;43.188;24.160;2022-09-30T05:24:39;10.13;;;4.18;;
26530;SDS011;14201;43.188;24.160;2022-09-30T05:27:05;8.40;;;3.78;;
26530;SDS011;14201;43.188;24.160;2022-09-30T05:29:31;6.75;;;4.20;;
26530;SDS011;14201;43.188;24.160;2022-09-30T05:31:57;8.43;;;3.85;;
26530;SDS011;14201;43.188;24.160;2022-09-30T05:34:22;8.88;;;3.63;;
26530;SDS011;14201;43.188;24.160;2022-09-30T05:36:48;8.63;;;3.65;;
26530;SDS011;14201;43.188;24.160;2022-09-30T05:39:14;9.13;;;3.33;;
26530;SDS011;14201;43.188;24.160;2022-09-30T05:41:39;15.38;;;3.88;;
26530;SDS011;14201;43.188;24.160;2022-09-30T05:44:05;13.40;;;3.28;;
26530;SDS011;14201;43.188;24.160;2022-09-30T05:46:33;6.45;;;2.75;;
26530;SDS011;14201;43.188;24.160;2022-09-30T05:48:59;6.05;;;2.63;;
26530;SDS011;14201;43.188;24.160;2022-09-30T05:51:25;16.67;;;2.90;;
26530;SDS011;14201;43.188;24.160;2022-09-30T05:53:50;6.82;;;2.63;;
26530;SDS011;14201;43.188;24.160;2022-09-30T05:56:16;12.90;;;2.88;;
26530;SDS011;14201;43.188;24.160;2022-09-30T05:58:42;9.13;;;2.60;;
26530;SDS011;14201;43.188;24.160;2022-09-30T06:01:09;5.88;;;2.58;;
26530;SDS011;14201;43.188;24.160;2022-09-30T06:03:36;9.00;;;3.22;;
26530;SDS011;14201;43.188;24.160;2022-09-30T06:06:02;9.20;;;2.95;;
26530;SDS011;14201;43.188;24.160;2022-09-30T06:08:30;4.00;;;2.40;;
26530;SDS011;14201;43.188;24.160;2022-09-30T06:10:55;16.63;;;3.38;;
26530;SDS011;14201;43.188;24.160;2022-09-30T06:13:25;8.10;;;2.38;;
26530;SDS011;14201;43.188;24.160;2022-09-30T06:15:58;8.43;;;2.60;;
26530;SDS011;14201;43.188;24.160;2022-09-30T06:18:26;6.63;;;2.85;;
26530;SDS011;14201;43.188;24.160;2022-09-30T06:20:55;71.78;;;5.43;;
26530;SDS011;14201;43.188;24.160;2022-09-30T06:23:26;7.20;;;2.55;;
26530;SDS011;14201;43.188;24.160;2022-09-30T06:25:54;7.13;;;2.50;;
26530;SDS011;14201;43.188;24.160;2022-09-30T06:28:20;13.40;;;3.00;;
26530;SDS011;14201;43.188;24.160;2022-09-30T06:30:47;4.18;;;2.00;;
26530;SDS011;14201;43.188;24.160;2022-09-30T06:33:13;4.13;;;1.70;;
26530;SDS011;14201;43.188;24.160;2022-09-30T06:35:40;4.90;;;2.25;;
26530;SDS011;14201;43.188;24.160;2022-09-30T11:42:33;2.70;;;0.70;;
26530;SDS011;14201;43.188;24.160;2022-09-30T11:53:40;1.25;;;0.60;;
26530;SDS011;14201;43.188;24.160;2022-09-30T11:59:01;2.95;;;1.05;;
26530;SDS011;14201;43.188;24.160;2022-09-30T12:01:40;3.60;;;0.77;;
26530;SDS011;14201;43.188;24.160;2022-09-30T12:04:12;3.85;;;0.77;;
26530;SDS011;14201;43.188;24.160;2022-09-30T12:06:52;3.97;;;0.95;;
26530;SDS011;14201;43.188;24.160;2022-09-30T12:09:34;2.77;;;0.90;;
26530;SDS011;14201;43.188;24.160;2022-09-30T12:12:05;7.55;;;1.15;;
26530;SDS011;14201;43.188;24.160;2022-09-30T12:14:36;4.38;;;1.05;;
26530;SDS011;14201;43.188;24.160;2022-09-30T12:17:20;5.03;;;1.00;;
26530;SDS011;14201;43.188;24.160;2022-09-30T12:19:55;6.38;;;1.13;;
26530;SDS011;14201;43.188;24.160;2022-09-30T12:22:29;5.05;;;0.80;;
26530;SDS011;14201;43.188;24.160;2022-09-30T12:25:27;2.65;;;1.20;;
26530;SDS011;14201;43.188;24.160;2022-09-30T12:28:00;2.33;;;1.13;;
26530;SDS011;14201;43.188;24.160;2022-09-30T12:39:25;3.40;;;1.10;;
26530;SDS011;14201;43.188;24.160;2022-09-30T12:45:24;4.03;;;1.13;;
26530;SDS011;14201;43.188;24.160;2022-09-30T12:48:07;3.78;;;1.25;;
26530;SDS011;14201;43.188;24.160;2022-09-30T12:50:47;2.42;;;1.17;;
26530;SDS011;14201;43.188;24.160;2022-09-30T12:55:48;2.60;;;1.15;;
26530;SDS011;14201;43.188;24.160;2022-09-30T12:58:24;4.10;;;1.40;;
26530;SDS011;14201;43.188;24.160;2022-09-30T13:00:59;2.00;;;1.00;;
26530;SDS011;14201;43.188;24.160;2022-09-30T13:03:43;3.33;;;1.48;;
26530;SDS011;14201;43.188;24.160;2022-09-30T13:06:15;5.28;;;1.15;;
26530;SDS011;14201;43.188;24.160;2022-09-30T13:08:47;3.92;;;1.42;;
26530;SDS011;14201;43.188;24.160;2022-09-30T13:19:35;4.75;;;1.27;;
26530;SDS011;14201;43.188;24.160;2022-09-30T13:27:34;4.28;;;1.15;;
26530;SDS011;14201;43.188;24.160;2022-09-30T13:32:41;1.67;;;1.02;;
26530;SDS011;14201;43.188;24.160;2022-09-30T13:35:56;2.83;;;1.30;;
26530;SDS011;14201;43.188;24.160;2022-09-30T13:38:16;3.20;;;1.55;;
26530;SDS011;14201;43.188;24.160;2022-09-30T13:46:03;4.32;;;1.35;;
26530;SDS011;14201;43.188;24.160;2022-09-30T13:48:35;2.75;;;1.10;;
26530;SDS011;14201;43.188;24.160;2022-09-30T13:51:07;3.15;;;1.08;;
26530;SDS011;14201;43.188;24.160;2022-09-30T13:53:40;11.48;;;1.40;;
26530;SDS011;14201;43.188;24.160;2022-09-30T13:56:17;3.30;;;1.10;;
26530;SDS011;14201;43.188;24.160;2022-09-30T13:58:51;3.03;;;1.08;;
26530;SDS011;14201;43.188;24.160;2022-09-30T14:07:27;2.60;;;1.00;;
26530;SDS011;14201;43.188;24.160;2022-09-30T14:13:17;3.47;;;1.38;;
26530;SDS011;14201;43.188;24.160;2022-09-30T14:21:26;1.80;;;0.90;;
26530;SDS011;14201;43.188;24.160;2022-09-30T14:24:00;3.75;;;1.00;;
26530;SDS011;14201;43.188;24.160;2022-09-30T14:31:50;3.05;;;1.00;;
26530;SDS011;14201;43.188;24.160;2022-09-30T14:34:16;1.30;;;0.88;;
26530;SDS011;14201;43.188;24.160;2022-09-30T14:36:46;3.33;;;1.10;;
26530;SDS011;14201;43.188;24.160;2022-09-30T14:39:19;1.70;;;1.10;;
26530;SDS011;14201;43.188;24.160;2022-09-30T14:41:50;5.93;;;1.40;;
26530;SDS011;14201;43.188;24.160;2022-09-30T14:44:20;2.47;;;1.17;;
26530;SDS011;14201;43.188;24.160;2022-09-30T14:46:49;3.38;;;1.20;;
26530;SDS011;14201;43.188;24.160;2022-09-30T14:49:18;1.65;;;1.13;;
26530;SDS011;14201;43.188;24.160;2022-09-30T14:51:52;2.83;;;1.20;;
26530;SDS011;14201;43.188;24.160;2022-09-30T14:54:22;4.30;;;1.60;;
26530;SDS011;14201;43.188;24.160;2022-09-30T14:56:56;5.57;;;1.20;;
26530;SDS011;14201;43.188;24.160;2022-09-30T14:59:28;2.03;;;1.33;;
26530;SDS011;14201;43.188;24.160;2022-09-30T15:01:59;2.25;;;1.35;;
26530;SDS011;14201;43.188;24.160;2022-09-30T15:04:29;3.63;;;1.77;;
26530;SDS011;14201;43.188;24.160;2022-09-30T15:06:57;2.88;;;1.35;;
26530;SDS011;14201;43.188;24.160;2022-09-30T15:12:04;6.57;;;1.30;;
26530;SDS011;14201;43.188;24.160;2022-09-30T15:14:47;3.17;;;1.30;;
26530;SDS011;14201;43.188;24.160;2022-09-30T15:17:23;2.95;;;1.17;;
26530;SDS011;14201;43.188;24.160;2022-09-30T15:19:54;5.55;;;1.30;;
26530;SDS011;14201;43.188;24.160;2022-09-30T15:22:22;4.82;;;1.40;;
26530;SDS011;14201;43.188;24.160;2022-09-30T15:24:50;2.47;;;1.17;;
26530;SDS011;14201;43.188;24.160;2022-09-30T15:27:26;2.20;;;1.30;;
26530;SDS011;14201;43.188;24.160;2022-09-30T15:30:00;3.33;;;1.33;;
26530;SDS011;14201;43.188;24.160;2022-09-30T15:32:29;4.60;;;1.30;;
26530;SDS011;14201;43.188;24.160;2022-09-30T15:37:53;7.50;;;1.80;;
26530;SDS011;14201;43.188;24.160;2022-09-30T15:40:33;12.15;;;1.63;;
26530;SDS011;14201;43.188;24.160;2022-09-30T15:43:13;19.80;;;1.77;;
26530;SDS011;14201;43.188;24.160;2022-09-30T15:45:46;6.07;;;1.25;;
26530;SDS011;14201;43.188;24.160;2022-09-30T15:50:44;6.40;;;1.52;;
26530;SDS011;14201;43.188;24.160;2022-09-30T15:53:20;3.17;;;1.45;;
26530;SDS011;14201;43.188;24.160;2022-09-30T15:55:59;3.78;;;1.50;;
26530;SDS011;14201;43.188;24.160;2022-09-30T16:06:53;5.93;;;1.60;;
26530;SDS011;14201;43.188;24.160;2022-09-30T16:09:22;3.13;;;1.40;;
26530;SDS011;14201;43.188;24.160;2022-09-30T16:14:31;4.65;;;1.90;;
26530;SDS011;14201;43.188;24.160;2022-09-30T16:17:00;4.65;;;1.50;;
26530;SDS011;14201;43.188;24.160;2022-09-30T16:19:30;9.00;;;2.13;;
26530;SDS011;14201;43.188;24.160;2022-09-30T16:21:56;15.35;;;2.35;;
26530;SDS011;14201;43.188;24.160;2022-09-30T16:26:49;7.93;;;1.90;;
26530;SDS011;14201;43.188;24.160;2022-09-30T16:32:01;11.35;;;2.35;;
26530;SDS011;14201;43.188;24.160;2022-09-30T16:34:27;5.63;;;1.70;;
26530;SDS011;14201;43.188;24.160;2022-09-30T16:39:50;5.40;;;2.00;;
26530;SDS011;14201;43.188;24.160;2022-09-30T16:42:16;9.38;;;2.40;;
26530;SDS011;14201;43.188;24.160;2022-09-30T16:44:43;4.43;;;1.95;;
26530;SDS011;14201;43.188;24.160;2022-09-30T16:47:13;3.25;;;1.48;;
26530;SDS011;14201;43.188;24.160;2022-09-30T16:49:40;4.57;;;1.90;;
26530;SDS011;14201;43.188;24.160;2022-09-30T16:52:07;8.23;;;2.28;;
26530;SDS011;14201;43.188;24.160;2022-09-30T16:54:34;4.85;;;2.08;;
26530;SDS011;14201;43.188;24.160;2022-09-30T16:57:00;11.48;;;1.95;;
26530;SDS011;14201;43.188;24.160;2022-09-30T16:59:25;11.90;;;4.05;;
26530;SDS011;14201;43.188;24.160;2022-09-30T17:01:51;36.42;;;14.38;;
26530;SDS011;14201;43.188;24.160;2022-09-30T17:04:17;24.67;;;10.35;;
26530;SDS011;14201;43.188;24.160;2022-09-30T17:06:43;20.80;;;8.23;;
26530;SDS011;14201;43.188;24.160;2022-09-30T17:09:09;7.07;;;2.20;;
26530;SDS011;14201;43.188;24.160;2022-09-30T17:11:35;8.65;;;3.00;;
26530;SDS011;14201;43.188;24.160;2022-09-30T17:14:03;6.53;;;2.60;;
26530;SDS011;14201;43.188;24.160;2022-09-30T17:16:29;26.05;;;10.35;;
26530;SDS011;14201;43.188;24.160;2022-09-30T17:18:55;11.13;;;4.55;;
26530;SDS011;14201;43.188;24.160;2022-09-30T17:21:22;50.85;;;17.85;;
26530;SDS011;14201;43.188;24.160;2022-09-30T17:23:49;25.58;;;10.85;;
26530;SDS011;14201;43.188;24.160;2022-09-30T17:26:15;8.60;;;4.45;;
26530;SDS011;14201;43.188;24.160;2022-09-30T17:28:42;20.73;;;8.10;;
26530;SDS011;14201;43.188;24.160;2022-09-30T17:31:08;13.35;;;6.10;;
26530;SDS011;14201;43.188;24.160;2022-09-30T17:33:35;11.93;;;6.00;;
26530;SDS011;14201;43.188;24.160;2022-09-30T17:36:04;8.70;;;4.30;;
26530;SDS011;14201;43.188;24.160;2022-09-30T17:38:39;8.05;;;5.07;;
26530;SDS011;14201;43.188;24.160;2022-09-30T17:41:05;12.38;;;6.20;;
26530;SDS011;14201;43.188;24.160;2022-09-30T17:43:50;25.48;;;11.93;;
26530;SDS011;14201;43.188;24.160;2022-09-30T17:46:16;22.90;;;9.65;;
26530;SDS011;14201;43.188;24.160;2022-09-30T17:48:45;33.22;;;13.02;;
26530;SDS011;14201;43.188;24.160;2022-09-30T17:51:12;23.35;;;10.13;;
26530;SDS011;14201;43.188;24.160;2022-09-30T17:53:38;18.48;;;7.20;;
26530;SDS011;14201;43.188;24.160;2022-09-30T17:56:05;14.82;;;7.00;;
26530;SDS011;14201;43.188;24.160;2022-09-30T17:58:38;10.43;;;4.72;;
26530;SDS011;14201;43.188;24.160;2022-09-30T18:01:05;8.20;;;3.75;;
26530;SDS011;14201;43.188;24.160;2022-09-30T18:03:34;11.13;;;4.90;;
26530;SDS011;14201;43.188;24.160;2022-09-30T18:06:00;18.42;;;8.95;;
26530;SDS011;14201;43.188;24.160;2022-09-30T18:08:27;18.88;;;8.45;;
26530;SDS011;14201;43.188;24.160;2022-09-30T18:10:53;16.55;;;8.57;;
26530;SDS011;14201;43.188;24.160;2022-09-30T18:13:19;28.77;;;12.82;;
26530;SDS011;14201;43.188;24.160;2022-09-30T18:15:45;22.08;;;9.95;;
26530;SDS011;14201;43.188;24.160;2022-09-30T18:18:11;14.25;;;6.35;;
26530;SDS011;14201;43.188;24.160;2022-09-30T18:20:41;12.55;;;5.20;;
26530;SDS011;14201;43.188;24.160;2022-09-30T18:23:09;10.95;;;5.10;;
26530;SDS011;14201;43.188;24.160;2022-09-30T18:25:36;18.48;;;6.38;;
26530;SDS011;14201;43.188;24.160;2022-09-30T18:28:03;21.73;;;5.90;;
26530;SDS011;14201;43.188;24.160;2022-09-30T18:30:33;13.05;;;5.18;;
26530;SDS011;14201;43.188;24.160;2022-09-30T18:33:02;14.70;;;6.88;;
26530;SDS011;14201;43.188;24.160;2022-09-30T18:35:31;15.73;;;8.65;;
26530;SDS011;14201;43.188;24.160;2022-09-30T18:40:27;27.02;;;11.07;;
26530;SDS011;14201;43.188;24.160;2022-09-30T18:42:54;9.52;;;5.55;;
26530;SDS011;14201;43.188;24.160;2022-09-30T18:45:25;8.57;;;5.63;;
26530;SDS011;14201;43.188;24.160;2022-09-30T18:47:54;10.77;;;4.72;;
26530;SDS011;14201;43.188;24.160;2022-09-30T18:50:22;13.48;;;7.10;;
26530;SDS011;14201;43.188;24.160;2022-09-30T18:52:49;16.20;;;8.70;;
26530;SDS011;14201;43.188;24.160;2022-09-30T18:55:16;21.42;;;8.93;;
26530;SDS011;14201;43.188;24.160;2022-09-30T18:57:43;14.65;;;6.45;;
26530;SDS011;14201;43.188;24.160;2022-09-30T19:00:12;15.52;;;7.72;;
26530;SDS011;14201;43.188;24.160;2022-09-30T19:02:39;12.45;;;5.35;;
26530;SDS011;14201;43.188;24.160;2022-09-30T19:05:08;14.60;;;5.30;;
26530;SDS011;14201;43.188;24.160;2022-09-30T19:07:34;8.33;;;4.00;;
26530;SDS011;14201;43.188;24.160;2022-09-30T19:10:02;10.85;;;4.65;;
26530;SDS011;14201;43.188;24.160;2022-09-30T19:12:32;7.30;;;4.20;;
26530;SDS011;14201;43.188;24.160;2022-09-30T19:15:00;11.52;;;4.88;;
26530;SDS011;14201;43.188;24.160;2022-09-30T19:17:30;12.02;;;4.60;;
26530;SDS011;14201;43.188;24.160;2022-09-30T19:19:57;10.48;;;4.10;;
26530;SDS011;14201;43.188;24.160;2022-09-30T19:22:27;13.30;;;4.95;;
26530;SDS011;14201;43.188;24.160;2022-09-30T19:24:54;10.63;;;5.50;;
26530;SDS011;14201;43.188;24.160;2022-09-30T19:27:20;10.38;;;4.40;;
26530;SDS011;14201;43.188;24.160;2022-09-30T19:29:49;7.43;;;3.53;;
26530;SDS011;14201;43.188;24.160;2022-09-30T19:32:16;13.05;;;3.75;;
26530;SDS011;14201;43.188;24.160;2022-09-30T19:34:43;12.80;;;5.72;;
26530;SDS011;14201;43.188;24.160;2022-09-30T19:37:13;11.75;;;4.05;;
26530;SDS011;14201;43.188;24.160;2022-09-30T19:39:39;10.10;;;4.05;;
26530;SDS011;14201;43.188;24.160;2022-09-30T19:42:05;10.25;;;4.53;;
26530;SDS011;14201;43.188;24.160;2022-09-30T19:44:30;9.30;;;4.88;;
26530;SDS011;14201;43.188;24.160;2022-09-30T19:46:56;9.35;;;4.38;;
26530;SDS011;14201;43.188;24.160;2022-09-30T19:49:22;9.88;;;4.10;;
26530;SDS011;14201;43.188;24.160;2022-09-30T19:51:48;7.97;;;3.97;;
26530;SDS011;14201;43.188;24.160;2022-09-30T19:54:17;7.35;;;4.05;;
26530;SDS011;14201;43.188;24.160;2022-09-30T19:56:45;14.63;;;7.18;;
26530;SDS011;14201;43.188;24.160;2022-09-30T19:59:12;9.55;;;3.90;;
26530;SDS011;14201;43.188;24.160;2022-09-30T20:01:37;14.15;;;3.97;;
26530;SDS011;14201;43.188;24.160;2022-09-30T20:04:03;12.10;;;4.40;;
26530;SDS011;14201;43.188;24.160;2022-09-30T20:06:29;9.18;;;4.32;;
26530;SDS011;14201;43.188;24.160;2022-09-30T20:08:56;5.85;;;4.00;;
26530;SDS011;14201;43.188;24.160;2022-09-30T20:11:29;9.32;;;4.53;;
26530;SDS011;14201;43.188;24.160;2022-09-30T20:13:59;17.73;;;4.55;;
26530;SDS011;14201;43.188;24.160;2022-09-30T20:16:44;9.13;;;5.30;;
26530;SDS011;14201;43.188;24.160;2022-09-30T20:19:13;11.60;;;4.70;;
26530;SDS011;14201;43.188;24.160;2022-09-30T20:21:40;9.98;;;4.82;;
26530;SDS011;14201;43.188;24.160;2022-09-30T20:24:13;14.10;;;6.93;;
26530;SDS011;14201;43.188;24.160;2022-09-30T20:26:40;11.07;;;5.57;;
26530;SDS011;14201;43.188;24.160;2022-09-30T20:29:07;14.48;;;7.20;;
26530;SDS011;14201;43.188;24.160;2022-09-30T20:31:35;11.85;;;5.85;;
26530;SDS011;14201;43.188;24.160;2022-09-30T20:34:02;8.52;;;4.28;;
26530;SDS011;14201;43.188;24.160;2022-09-30T20:36:29;10.25;;;4.95;;
26530;SDS011;14201;43.188;24.160;2022-09-30T20:38:56;11.98;;;5.50;;
26530;SDS011;14201;43.188;24.160;2022-09-30T20:41:28;13.40;;;6.40;;
26530;SDS011;14201;43.188;24.160;2022-09-30T20:44:00;11.63;;;5.88;;
26530;SDS011;14201;43.188;24.160;2022-09-30T20:46:30;9.70;;;3.70;;
26530;SDS011;14201;43.188;24.160;2022-09-30T20:48:57;10.73;;;3.55;;
26530;SDS011;14201;43.188;24.160;2022-09-30T20:51:24;8.82;;;3.92;;
26530;SDS011;14201;43.188;24.160;2022-09-30T20:53:51;5.03;;;3.33;;
26530;SDS011;14201;43.188;24.160;2022-09-30T20:56:19;9.85;;;4.20;;
26530;SDS011;14201;43.188;24.160;2022-09-30T20:58:46;10.48;;;3.90;;
26530;SDS011;14201;43.188;24.160;2022-09-30T21:01:14;5.47;;;3.85;;
26530;SDS011;14201;43.188;24.160;2022-09-30T21:03:44;8.68;;;4.40;;
26530;SDS011;14201;43.188;24.160;2022-09-30T21:06:24;8.30;;;4.53;;
26530;SDS011;14201;43.188;24.160;2022-09-30T21:08:54;9.10;;;4.20;;
26530;SDS011;14201;43.188;24.160;2022-09-30T21:11:21;6.65;;;3.50;;
26530;SDS011;14201;43.188;24.160;2022-09-30T21:13:48;8.15;;;3.95;;
26530;SDS011;14201;43.188;24.160;2022-09-30T21:16:16;11.00;;;4.60;;
26530;SDS011;14201;43.188;24.160;2022-09-30T21:18:45;12.70;;;6.65;;
26530;SDS011;14201;43.188;24.160;2022-09-30T21:21:14;5.93;;;3.65;;
26530;SDS011;14201;43.188;24.160;2022-09-30T21:23:41;7.03;;;3.53;;
26530;SDS011;14201;43.188;24.160;2022-09-30T21:26:08;10.02;;;4.03;;
26530;SDS011;14201;43.188;24.160;2022-09-30T21:28:35;13.48;;;6.68;;
26530;SDS011;14201;43.188;24.160;2022-09-30T21:31:04;14.93;;;6.32;;
26530;SDS011;14201;43.188;24.160;2022-09-30T21:35:58;20.77;;;9.50;;
26530;SDS011;14201;43.188;24.160;2022-09-30T21:38:25;14.05;;;3.60;;
26530;SDS011;14201;43.188;24.160;2022-09-30T21:40:55;7.32;;;3.50;;
26530;SDS011;14201;43.188;24.160;2022-09-30T21:43:22;7.65;;;3.42;;
26530;SDS011;14201;43.188;24.160;2022-09-30T21:45:54;11.68;;;3.40;;
26530;SDS011;14201;43.188;24.160;2022-09-30T21:48:21;11.05;;;3.83;;
26530;SDS011;14201;43.188;24.160;2022-09-30T21:50:47;7.30;;;3.95;;
26530;SDS011;14201;43.188;24.160;2022-09-30T21:53:13;7.97;;;3.70;;
26530;SDS011;14201;43.188;24.160;2022-09-30T21:55:38;10.60;;;3.83;;
26530;SDS011;14201;43.188;24.160;2022-09-30T21:58:04;8.50;;;3.42;;
26530;SDS011;14201;43.188;24.160;2022-09-30T22:00:30;12.73;;;6.05;;
26530;SDS011;14201;43.188;24.160;2022-09-30T22:02:56;10.70;;;3.88;;
26530;SDS011;14201;43.188;24.160;2022-09-30T22:05:22;14.90;;;8.13;;
26530;SDS011;14201;43.188;24.160;2022-09-30T22:07:47;10.13;;;3.78;;
26530;SDS011;14201;43.188;24.160;2022-09-30T22:10:13;10.27;;;3.88;;
26530;SDS011;14201;43.188;24.160;2022-09-30T22:12:39;10.10;;;4.53;;
26530;SDS011;14201;43.188;24.160;2022-09-30T22:15:04;9.60;;;3.95;;
26530;SDS011;14201;43.188;24.160;2022-09-30T22:17:30;6.93;;;3.33;;
26530;SDS011;14201;43.188;24.160;2022-09-30T22:19:56;10.88;;;3.30;;
26530;SDS011;14201;43.188;24.160;2022-09-30T22:22:22;7.90;;;3.05;;
26530;SDS011;14201;43.188;24.160;2022-09-30T22:24:50;7.72;;;3.28;;
26530;SDS011;14201;43.188;24.160;2022-09-30T22:27:17;8.55;;;3.92;;
26530;SDS011;14201;43.188;24.160;2022-09-30T22:29:43;8.60;;;3.78;;
26530;SDS011;14201;43.188;24.160;2022-09-30T22:32:09;10.07;;;3.33;;
26530;SDS011;14201;43.188;24.160;2022-09-30T22:34:35;6.78;;;3.95;;